createdAt,value
2016-04-04T00:00:18.062Z,0
2016-04-04T00:01:18.081Z,0
2016-04-04T00:02:18.161Z,0
2016-04-04T00:03:18.196Z,0
2016-04-04T00:04:18.214Z,0
2016-04-04T00:05:18.263Z,0
2016-04-04T00:06:18.344Z,0
2016-04-04T00:07:18.378Z,0
2016-04-04T00:08:18.381Z,0
2016-04-04T00:09:18.414Z,0
2016-04-04T00:10:18.464Z,0
2016-04-04T00:11:18.498Z,0
2016-04-04T00:12:18.579Z,0
2016-04-04T00:13:18.581Z,0
2016-04-04T00:14:18.631Z,0
2016-04-04T00:15:18.650Z,0
2016-04-04T00:16:18.715Z,0
2016-04-04T00:17:18.749Z,0
2016-04-04T00:18:18.813Z,0
2016-04-04T00:19:18.832Z,0
2016-04-04T00:20:18.913Z,0
2016-04-04T00:21:18.931Z,0
2016-04-04T00:22:18.934Z,0
2016-04-04T00:23:18.983Z,0
2016-04-04T00:24:19.018Z,0
2016-04-04T00:25:19.051Z,0
2016-04-04T00:26:19.116Z,0
2016-04-04T00:27:19.151Z,0
2016-04-04T00:28:19.185Z,0
2016-04-04T00:29:19.234Z,0
2016-04-04T00:30:19.252Z,0
2016-04-04T00:31:19.286Z,0
2016-04-04T00:32:19.367Z,0
2016-04-04T00:33:19.401Z,0
2016-04-04T00:34:19.420Z,0
2016-04-04T00:35:19.453Z,0
2016-04-04T00:36:19.503Z,0
2016-04-04T00:37:19.536Z,0
2016-04-04T00:38:19.601Z,0
2016-04-04T00:39:19.480Z,0
2016-04-04T00:40:19.669Z,0
2016-04-04T00:41:19.689Z,0
2016-04-04T00:42:19.737Z,0
2016-04-04T00:43:19.661Z,0
2016-04-04T00:44:19.836Z,0
2016-04-04T00:45:19.856Z,0
2016-04-04T00:46:19.889Z,0
2016-04-04T00:47:19.939Z,0
2016-04-04T00:48:19.988Z,0
2016-04-04T00:49:20.038Z,0
2016-04-04T00:50:20.071Z,0
2016-04-04T00:51:20.105Z,0
2016-04-04T00:52:20.139Z,0
2016-04-04T00:53:20.174Z,0
2016-04-04T00:54:20.223Z,0
2016-04-04T00:55:20.272Z,0
2016-04-04T00:56:20.307Z,0
2016-04-04T00:57:20.325Z,0
2016-04-04T00:58:20.390Z,0
2016-04-04T00:59:20.424Z,0
2016-04-04T01:00:20.473Z,0
2016-04-04T01:01:20.507Z,0
2016-04-04T01:02:20.557Z,0
2016-04-04T01:03:20.576Z,0
2016-04-04T01:04:20.610Z,0
2016-04-04T01:05:20.659Z,0
2016-04-04T01:06:20.693Z,0
2016-04-04T01:07:20.727Z,0
2016-04-04T01:08:20.777Z,0
2016-04-04T01:09:20.795Z,0
2016-04-04T01:10:20.845Z,0
2016-04-04T01:11:20.895Z,0
2016-04-04T01:12:20.928Z,0
2016-04-04T01:13:20.821Z,0
2016-04-04T01:14:21.011Z,0
2016-04-04T01:15:21.045Z,0
2016-04-04T01:16:21.079Z,0
2016-04-04T01:17:21.128Z,0
2016-04-04T01:18:21.163Z,0
2016-04-04T01:19:21.212Z,0
2016-04-04T01:20:21.230Z,0
2016-04-04T01:21:21.280Z,0
2016-04-04T01:22:21.330Z,0
2016-04-04T01:23:21.364Z,0
2016-04-04T01:24:21.398Z,0
2016-04-04T01:25:21.432Z,0
2016-04-04T01:26:21.325Z,0
2016-04-04T01:27:21.515Z,0
2016-04-04T01:28:21.549Z,0
2016-04-04T01:29:21.598Z,0
2016-04-04T01:30:21.632Z,0
2016-04-04T01:31:21.682Z,0
2016-04-04T01:32:21.716Z,0
2016-04-04T01:33:21.766Z,0
2016-04-04T01:34:21.799Z,0
2016-04-04T01:35:21.834Z,0
2016-04-04T01:36:21.883Z,0
2016-04-04T01:37:21.918Z,0
2016-04-04T01:38:21.951Z,0
2016-04-04T01:39:21.985Z,0
2016-04-04T01:40:22.035Z,0
2016-04-04T01:41:22.068Z,0
2016-04-04T01:42:22.103Z,0
2016-04-04T01:43:22.136Z,0
2016-04-04T01:44:22.186Z,0
2016-04-04T01:45:22.220Z,0
2016-04-04T01:46:22.269Z,0
2016-04-04T01:47:22.303Z,0
2016-04-04T01:48:22.336Z,0
2016-04-04T01:49:22.371Z,0
2016-04-04T01:50:22.420Z,0
2016-04-04T01:51:22.485Z,0
2016-04-04T01:52:22.504Z,0
2016-04-04T01:53:22.538Z,0
2016-04-04T01:54:22.571Z,0
2016-04-04T01:55:22.605Z,0
2016-04-04T01:56:22.655Z,0
2016-04-04T01:57:22.705Z,0
2016-04-04T01:58:22.723Z,0
2016-04-04T01:59:22.773Z,0
2016-04-04T02:00:22.812Z,0
2016-04-04T02:01:22.846Z,0
2016-04-04T02:02:22.896Z,0
2016-04-04T02:03:22.913Z,0
2016-04-04T02:04:22.963Z,0
2016-04-04T02:05:23.028Z,0
2016-04-04T02:06:23.046Z,0
2016-04-04T02:07:23.081Z,0
2016-04-04T02:08:23.130Z,0
2016-04-04T02:09:23.164Z,0
2016-04-04T02:10:23.198Z,0
2016-04-04T02:11:23.232Z,0
2016-04-04T02:12:23.281Z,0
2016-04-04T02:13:23.315Z,0
2016-04-04T02:14:23.350Z,0
2016-04-04T02:15:23.384Z,0
2016-04-04T02:16:23.417Z,0
2016-04-04T02:17:23.467Z,0
2016-04-04T02:18:23.500Z,0
2016-04-04T02:19:23.566Z,0
2016-04-04T02:20:23.584Z,0
2016-04-04T02:21:23.634Z,0
2016-04-04T02:22:23.653Z,0
2016-04-04T02:23:23.717Z,0
2016-04-04T02:24:23.736Z,0
2016-04-04T02:25:23.785Z,0
2016-04-04T02:26:23.835Z,0
2016-04-04T02:27:23.869Z,0
2016-04-04T02:28:23.903Z,0
2016-04-04T02:29:23.937Z,0
2016-04-04T02:30:23.971Z,0
2016-04-04T02:31:24.005Z,0
2016-04-04T02:32:24.070Z,0
2016-04-04T02:33:24.104Z,0
2016-04-04T02:34:24.138Z,0
2016-04-04T02:35:24.187Z,0
2016-04-04T02:36:24.206Z,0
2016-04-04T02:37:24.255Z,0
2016-04-04T02:38:24.273Z,0
2016-04-04T02:39:24.323Z,0
2016-04-04T02:40:24.373Z,0
2016-04-04T02:41:24.406Z,0
2016-04-04T02:42:24.440Z,0
2016-04-04T02:43:24.475Z,0
2016-04-04T02:44:24.524Z,0
2016-04-04T02:45:24.558Z,0
2016-04-04T02:46:24.608Z,0
2016-04-04T02:47:24.642Z,0
2016-04-04T02:48:24.659Z,0
2016-04-04T02:49:24.709Z,0
2016-04-04T02:50:24.758Z,0
2016-04-04T02:51:24.636Z,0
2016-04-04T02:52:24.827Z,0
2016-04-04T02:53:24.876Z,0
2016-04-04T02:54:24.910Z,0
2016-04-04T02:55:24.944Z,0
2016-04-04T02:56:24.977Z,0
2016-04-04T02:57:25.028Z,0
2016-04-04T02:58:25.061Z,0
2016-04-04T02:59:25.111Z,0
2016-04-04T03:00:25.129Z,0
2016-04-04T03:01:25.180Z,0
2016-04-04T03:02:25.213Z,0
2016-04-04T03:03:25.246Z,0
2016-04-04T03:04:25.297Z,0
2016-04-04T03:05:25.346Z,0
2016-04-04T03:06:25.380Z,0
2016-04-04T03:07:25.257Z,0
2016-04-04T03:08:25.629Z,0
2016-04-04T03:09:25.491Z,0
2016-04-04T03:10:25.524Z,0
2016-04-04T03:11:25.574Z,0
2016-04-04T03:12:25.608Z,0
2016-04-04T03:13:25.642Z,0
2016-04-04T03:14:25.676Z,0
2016-04-04T03:15:25.726Z,0
2016-04-04T03:16:25.759Z,0
2016-04-04T03:17:25.793Z,0
2016-04-04T03:18:25.827Z,0
2016-04-04T03:19:25.877Z,0
2016-04-04T03:20:25.926Z,0
2016-04-04T03:21:25.945Z,0
2016-04-04T03:22:25.995Z,0
2016-04-04T03:23:26.028Z,0
2016-04-04T03:24:26.062Z,0
2016-04-04T03:25:26.112Z,0
2016-04-04T03:26:26.161Z,0
2016-04-04T03:27:26.195Z,0
2016-04-04T03:28:26.214Z,0
2016-04-04T03:29:26.263Z,0
2016-04-04T03:30:26.313Z,0
2016-04-04T03:31:26.347Z,0
2016-04-04T03:32:26.396Z,0
2016-04-04T03:33:26.414Z,0
2016-04-04T03:34:26.464Z,0
2016-04-04T03:35:26.498Z,0
2016-04-04T03:36:26.407Z,0
2016-04-04T03:37:26.582Z,0
2016-04-04T03:38:26.616Z,0
2016-04-04T03:39:26.666Z,0
2016-04-04T03:40:26.699Z,0
2016-04-04T03:41:26.732Z,0
2016-04-04T03:42:26.783Z,0
2016-04-04T03:43:26.816Z,0
2016-04-04T03:44:26.850Z,0
2016-04-04T03:45:26.900Z,0
2016-04-04T03:46:26.935Z,0
2016-04-04T03:47:26.968Z,0
2016-04-04T03:48:27.001Z,0
2016-04-04T03:49:27.036Z,0
2016-04-04T03:50:27.101Z,0
2016-04-04T03:51:27.134Z,0
2016-04-04T03:52:27.168Z,0
2016-04-04T03:53:27.187Z,0
2016-04-04T03:54:27.221Z,0
2016-04-04T03:55:27.286Z,0
2016-04-04T03:56:27.351Z,0
2016-04-04T03:57:27.370Z,0
2016-04-04T03:58:27.389Z,0
2016-04-04T03:59:27.437Z,0
2016-04-04T04:00:27.456Z,0
2016-04-04T04:01:27.537Z,0
2016-04-04T04:02:27.586Z,0
2016-04-04T04:03:27.605Z,0
2016-04-04T04:04:27.623Z,0
2016-04-04T04:05:27.672Z,0
2016-04-04T04:06:27.723Z,0
2016-04-04T04:07:27.742Z,0
2016-04-04T04:08:27.775Z,0
2016-04-04T04:09:27.840Z,0
2016-04-04T04:10:27.859Z,0
2016-04-04T04:11:27.908Z,0
2016-04-04T04:12:27.942Z,0
2016-04-04T04:13:27.976Z,0
2016-04-04T04:14:28.042Z,0
2016-04-04T04:15:28.075Z,0
2016-04-04T04:16:28.078Z,0
2016-04-04T04:17:28.128Z,0
2016-04-04T04:18:28.161Z,0
2016-04-04T04:19:28.227Z,0
2016-04-04T04:20:28.244Z,0
2016-04-04T04:21:28.311Z,0
2016-04-04T04:22:28.329Z,0
2016-04-04T04:23:28.346Z,0
2016-04-04T04:24:28.381Z,0
2016-04-04T04:25:28.430Z,0
2016-04-04T04:26:28.465Z,0
2016-04-04T04:27:28.513Z,4
2016-04-04T04:28:28.564Z,4
2016-04-04T04:29:28.598Z,4
2016-04-04T04:30:28.646Z,0
2016-04-04T04:31:28.681Z,4
2016-04-04T04:32:28.698Z,4
2016-04-04T04:33:28.734Z,4
2016-04-04T04:34:28.798Z,8
2016-04-04T04:35:28.832Z,8
2016-04-04T04:36:28.898Z,8
2016-04-04T04:37:28.900Z,8
2016-04-04T04:38:28.934Z,12
2016-04-04T04:39:28.983Z,12
2016-04-04T04:40:29.003Z,16
2016-04-04T04:41:29.067Z,16
2016-04-04T04:42:29.117Z,24
2016-04-04T04:43:29.135Z,28
2016-04-04T04:44:29.169Z,28
2016-04-04T04:45:29.203Z,32
2016-04-04T04:46:29.268Z,40
2016-04-04T04:47:29.317Z,40
2016-04-04T04:48:29.320Z,48
2016-04-04T04:49:29.370Z,56
2016-04-04T04:50:29.404Z,64
2016-04-04T04:51:29.453Z,72
2016-04-04T04:52:29.488Z,76
2016-04-04T04:53:29.537Z,84
2016-04-04T04:54:29.555Z,96
2016-04-04T04:55:29.588Z,104
2016-04-04T04:56:29.638Z,116
2016-04-04T04:57:29.688Z,132
2016-04-04T04:58:29.722Z,140
2016-04-04T04:59:29.756Z,152
2016-04-04T05:00:29.806Z,168
2016-04-04T05:01:29.840Z,184
2016-04-04T05:02:29.873Z,196
2016-04-04T05:03:29.924Z,212
2016-04-04T05:04:29.973Z,228
2016-04-04T05:05:30.007Z,244
2016-04-04T05:06:30.025Z,260
2016-04-04T05:07:30.075Z,280
2016-04-04T05:08:30.109Z,300
2016-04-04T05:09:30.142Z,320
2016-04-04T05:10:30.161Z,344
2016-04-04T05:11:30.225Z,364
2016-04-04T05:12:30.260Z,388
2016-04-04T05:13:30.309Z,412
2016-04-04T05:14:30.327Z,444
2016-04-04T05:15:30.393Z,476
2016-04-04T05:16:30.412Z,508
2016-04-04T05:17:30.445Z,548
2016-04-04T05:18:30.479Z,592
2016-04-04T05:19:30.529Z,644
2016-04-04T05:20:30.563Z,704
2016-04-04T05:21:30.596Z,772
2016-04-04T05:22:30.646Z,864
2016-04-04T05:23:30.664Z,960
2016-04-04T05:24:30.746Z,1060
2016-04-04T05:25:30.591Z,1176
2016-04-04T05:26:30.802Z,1288
2016-04-04T05:27:30.999Z,1400
2016-04-04T05:28:31.615Z,1476
2016-04-04T05:29:30.915Z,1528
2016-04-04T05:30:30.949Z,1600
2016-04-04T05:31:31.015Z,1680
2016-04-04T05:32:31.032Z,1724
2016-04-04T05:33:30.895Z,1776
2016-04-04T05:34:31.100Z,1804
2016-04-04T05:35:31.150Z,1828
2016-04-04T05:36:31.184Z,1888
2016-04-04T05:37:31.218Z,1960
2016-04-04T05:38:31.252Z,2020
2016-04-04T05:39:31.286Z,2088
2016-04-04T05:40:31.335Z,2176
2016-04-04T05:41:31.369Z,2264
2016-04-04T05:42:31.403Z,2388
2016-04-04T05:43:31.453Z,2536
2016-04-04T05:44:31.486Z,2640
2016-04-04T05:45:31.537Z,2696
2016-04-04T05:46:31.570Z,2656
2016-04-04T05:47:31.604Z,2596
2016-04-04T05:48:31.639Z,2516
2016-04-04T05:49:31.703Z,2372
2016-04-04T05:50:31.737Z,2328
2016-04-04T05:51:31.771Z,2292
2016-04-04T05:52:31.789Z,2320
2016-04-04T05:53:31.838Z,2368
2016-04-04T05:54:31.873Z,2524
2016-04-04T05:55:31.938Z,2816
2016-04-04T05:56:31.956Z,2936
2016-04-04T05:57:31.991Z,3072
2016-04-04T05:58:32.072Z,3224
2016-04-04T05:59:32.074Z,3060
2016-04-04T06:00:32.138Z,3116
2016-04-04T06:01:32.157Z,3364
2016-04-04T06:02:32.191Z,3544
2016-04-04T06:03:32.225Z,3612
2016-04-04T06:04:32.306Z,3536
2016-04-04T06:05:32.309Z,3824
2016-04-04T06:06:32.343Z,3868
2016-04-04T06:07:32.376Z,3784
2016-04-04T06:08:32.442Z,3860
2016-04-04T06:09:32.476Z,4000
2016-04-04T06:10:32.509Z,4052
2016-04-04T06:11:32.559Z,4092
2016-04-04T06:12:32.593Z,4064
2016-04-04T06:13:32.627Z,3940
2016-04-04T06:14:32.676Z,4264
2016-04-04T06:15:32.711Z,4348
2016-04-04T06:16:32.760Z,4384
2016-04-04T06:17:32.794Z,4388
2016-04-04T06:18:32.828Z,4408
2016-04-04T06:19:32.878Z,4592
2016-04-04T06:20:32.927Z,4540
2016-04-04T06:21:32.961Z,4640
2016-04-04T06:22:33.011Z,4596
2016-04-04T06:23:33.029Z,4836
2016-04-04T06:24:33.078Z,4684
2016-04-04T06:25:33.112Z,4288
2016-04-04T06:26:33.146Z,4252
2016-04-04T06:27:33.180Z,4112
2016-04-04T06:28:33.073Z,4328
2016-04-04T06:29:33.264Z,6120
2016-04-04T06:30:33.313Z,7756
2016-04-04T06:31:33.191Z,8856
2016-04-04T06:32:33.396Z,5772
2016-04-04T06:33:33.432Z,8272
2016-04-04T06:34:33.480Z,7688
2016-04-04T06:35:33.514Z,8148
2016-04-04T06:36:33.549Z,8232
2016-04-04T06:37:33.598Z,9756
2016-04-04T06:38:33.632Z,9168
2016-04-04T06:39:33.681Z,7296
2016-04-04T06:40:33.731Z,4912
2016-04-04T06:41:33.749Z,4432
2016-04-04T06:42:33.798Z,4224
2016-04-04T06:43:33.833Z,4368
2016-04-04T06:44:33.882Z,4668
2016-04-04T06:45:33.932Z,7120
2016-04-04T06:46:33.950Z,4880
2016-04-04T06:47:34.015Z,4964
2016-04-04T06:48:34.034Z,4928
2016-04-04T06:49:34.083Z,5032
2016-04-04T06:50:34.117Z,6640
2016-04-04T06:51:34.166Z,6580
2016-04-04T06:52:34.216Z,5132
2016-04-04T06:53:34.250Z,5268
2016-04-04T06:54:34.300Z,4804
2016-04-04T06:55:34.333Z,4444
2016-04-04T06:56:34.383Z,3952
2016-04-04T06:57:34.402Z,4224
2016-04-04T06:58:34.451Z,6012
2016-04-04T06:59:34.516Z,5400
2016-04-04T07:00:34.540Z,5064
2016-04-04T07:01:34.590Z,5224
2016-04-04T07:02:34.607Z,6216
2016-04-04T07:03:34.673Z,7620
2016-04-04T07:04:34.722Z,7416
2016-04-04T07:05:34.757Z,6548
2016-04-04T07:06:34.774Z,6164
2016-04-04T07:07:34.824Z,5324
2016-04-04T07:08:34.873Z,4832
2016-04-04T07:09:34.907Z,4224
2016-04-04T07:10:34.941Z,4208
2016-04-04T07:11:34.991Z,3820
2016-04-04T07:12:35.056Z,4784
2016-04-04T07:13:35.089Z,6156
2016-04-04T07:14:35.125Z,7880
2016-04-04T07:15:35.158Z,8356
2016-04-04T07:16:35.035Z,7940
2016-04-04T07:17:35.241Z,8000
2016-04-04T07:18:35.260Z,9460
2016-04-04T07:19:35.325Z,7804
2016-04-04T07:20:35.358Z,4892
2016-04-04T07:21:35.409Z,5592
2016-04-04T07:22:35.458Z,6732
2016-04-04T07:23:35.492Z,5644
2016-04-04T07:24:35.526Z,5588
2016-04-04T07:25:35.575Z,5228
2016-04-04T07:26:35.610Z,4828
2016-04-04T07:27:35.660Z,4872
2016-04-04T07:28:35.708Z,6956
2016-04-04T07:29:35.757Z,4308
2016-04-04T07:30:35.777Z,4392
2016-04-04T07:31:35.811Z,5848
2016-04-04T07:32:35.876Z,8124
2016-04-04T07:33:35.893Z,8732
2016-04-04T07:34:35.960Z,8320
2016-04-04T07:35:35.976Z,7988
2016-04-04T07:36:36.012Z,10600
2016-04-04T07:37:36.061Z,12680
2016-04-04T07:38:36.110Z,10976
2016-04-04T07:39:36.160Z,8632
2016-04-04T07:40:36.210Z,5504
2016-04-04T07:41:36.212Z,5224
2016-04-04T07:42:36.261Z,6600
2016-04-04T07:43:36.312Z,7132
2016-04-04T07:44:36.362Z,8552
2016-04-04T07:45:36.395Z,10456
2016-04-04T07:46:36.444Z,13420
2016-04-04T07:47:36.478Z,12124
2016-04-04T07:48:36.528Z,10264
2016-04-04T07:49:35.828Z,8404
2016-04-04T07:50:36.596Z,10040
2016-04-04T07:51:36.645Z,12376
2016-04-04T07:52:36.694Z,12464
2016-04-04T07:53:36.730Z,12540
2016-04-04T07:54:36.763Z,15392
2016-04-04T07:55:36.812Z,13336
2016-04-04T07:56:36.863Z,15500
2016-04-04T07:57:36.896Z,21440
2016-04-04T07:58:36.946Z,25536
2016-04-04T07:59:36.995Z,25536
2016-04-04T08:00:36.888Z,18624
2016-04-04T08:01:37.062Z,14976
2016-04-04T08:02:37.113Z,14656
2016-04-04T08:03:37.146Z,13148
2016-04-04T08:04:37.196Z,13468
2016-04-04T08:05:37.230Z,17004
2016-04-04T08:06:37.280Z,18400
2016-04-04T08:07:37.329Z,17056
2016-04-04T08:08:37.394Z,18528
2016-04-04T08:09:37.428Z,17824
2016-04-04T08:10:37.446Z,20192
2016-04-04T08:11:37.512Z,15680
2016-04-04T08:12:37.561Z,6268
2016-04-04T08:13:37.439Z,4956
2016-04-04T08:14:37.628Z,4780
2016-04-04T08:15:37.678Z,4768
2016-04-04T08:16:37.712Z,5504
2016-04-04T08:17:37.762Z,5668
2016-04-04T08:18:37.812Z,5388
2016-04-04T08:19:37.924Z,4928
2016-04-04T08:20:37.895Z,5248
2016-04-04T08:21:37.976Z,5260
2016-04-04T08:22:37.978Z,5372
2016-04-04T08:23:38.013Z,6016
2016-04-04T08:24:38.078Z,6940
2016-04-04T08:25:38.112Z,6996
2016-04-04T08:26:38.161Z,5764
2016-04-04T08:27:38.242Z,5608
2016-04-04T08:28:38.244Z,6092
2016-04-04T08:29:38.295Z,5800
2016-04-04T08:30:38.344Z,6044
2016-04-04T08:31:38.378Z,5920
2016-04-04T08:32:38.412Z,7316
2016-04-04T08:33:38.467Z,8180
2016-04-04T08:34:38.630Z,7112
2016-04-04T08:35:38.543Z,5816
2016-04-04T08:36:38.565Z,29376
2016-04-04T08:37:38.586Z,48512
2016-04-04T08:38:38.631Z,6248
2016-04-04T08:39:38.676Z,38976
2016-04-04T08:40:38.721Z,9880
2016-04-04T08:41:38.767Z,4284
2016-04-04T08:42:38.796Z,7896
2016-04-04T08:43:38.828Z,46240
2016-04-04T08:44:38.908Z,50560
2016-04-04T08:45:38.925Z,49952
2016-04-04T08:46:38.973Z,18560
2016-04-04T08:47:39.004Z,11356
2016-04-04T08:48:39.054Z,18624
2016-04-04T08:49:39.102Z,10048
2016-04-04T08:50:39.182Z,34848
2016-04-04T08:51:39.200Z,6924
2016-04-04T08:52:39.233Z,5112
2016-04-04T08:53:39.282Z,6904
2016-04-04T08:54:39.316Z,6304
2016-04-04T08:55:39.365Z,4580
2016-04-04T08:56:39.976Z,9524
2016-04-04T08:57:39.447Z,9836
2016-04-04T08:58:39.481Z,4440
2016-04-04T08:59:39.531Z,29696
2016-04-04T09:00:39.581Z,9484
2016-04-04T09:01:39.646Z,5684
2016-04-04T09:02:39.648Z,4776
2016-04-04T09:03:39.730Z,4512
2016-04-04T09:04:39.779Z,4068
2016-04-04T09:05:39.797Z,4892
2016-04-04T09:06:39.987Z,4076
2016-04-04T09:07:39.755Z,7152
2016-04-04T09:08:39.915Z,6596
2016-04-04T09:09:39.965Z,4684
2016-04-04T09:10:40.029Z,5744
2016-04-04T09:11:40.063Z,5212
2016-04-04T09:12:40.112Z,5244
2016-04-04T09:13:40.162Z,3592
2016-04-04T09:14:40.181Z,3428
2016-04-04T09:15:40.246Z,4820
2016-04-04T09:16:40.264Z,3860
2016-04-04T09:17:40.329Z,3284
2016-04-04T09:18:40.379Z,3152
2016-04-04T09:19:40.412Z,2824
2016-04-04T09:20:40.447Z,3396
2016-04-04T09:21:40.481Z,4156
2016-04-04T09:22:40.545Z,3044
2016-04-04T09:23:40.580Z,3056
2016-04-04T09:24:40.645Z,5292
2016-04-04T09:25:40.679Z,6704
2016-04-04T09:26:40.728Z,5940
2016-04-04T09:27:40.747Z,5592
2016-04-04T09:28:40.797Z,6768
2016-04-04T09:29:40.846Z,6788
2016-04-04T09:30:40.896Z,6260
2016-04-04T09:31:40.930Z,6792
2016-04-04T09:32:40.994Z,8556
2016-04-04T09:33:41.029Z,9560
2016-04-04T09:34:41.157Z,8856
2016-04-04T09:35:41.096Z,8028
2016-04-04T09:36:41.162Z,6816
2016-04-04T09:37:41.196Z,5928
2016-04-04T09:38:41.246Z,5384
2016-04-04T09:39:41.279Z,5044
2016-04-04T09:40:41.329Z,5140
2016-04-04T09:41:41.378Z,6480
2016-04-04T09:42:41.428Z,6288
2016-04-04T09:43:41.462Z,5248
2016-04-04T09:44:41.512Z,5216
2016-04-04T09:45:41.546Z,5916
2016-04-04T09:46:41.564Z,5708
2016-04-04T09:47:41.612Z,6008
2016-04-04T09:48:41.663Z,7156
2016-04-04T09:49:41.573Z,6884
2016-04-04T09:50:41.746Z,6004
2016-04-04T09:51:41.780Z,4612
2016-04-04T09:52:41.892Z,5668
2016-04-04T09:53:41.894Z,6752
2016-04-04T09:54:41.928Z,7100
2016-04-04T09:55:41.964Z,7644
2016-04-04T09:56:42.059Z,8020
2016-04-04T09:57:42.062Z,7764
2016-04-04T09:58:42.096Z,8012
2016-04-04T09:59:42.130Z,8488
2016-04-04T10:00:42.180Z,7476
2016-04-04T10:01:42.230Z,6568
2016-04-04T10:02:42.279Z,5928
2016-04-04T10:03:42.297Z,5464
2016-04-04T10:04:42.346Z,5776
2016-04-04T10:05:42.380Z,6956
2016-04-04T10:06:42.727Z,7416
2016-04-04T10:07:42.464Z,7072
2016-04-04T10:08:42.498Z,6832
2016-04-04T10:09:42.552Z,6548
2016-04-04T10:10:42.601Z,6844
2016-04-04T10:11:42.668Z,7104
2016-04-04T10:12:42.717Z,7200
2016-04-04T10:13:42.720Z,5528
2016-04-04T10:14:42.784Z,5320
2016-04-04T10:15:42.818Z,6444
2016-04-04T10:16:42.853Z,6792
2016-04-04T10:17:42.918Z,6104
2016-04-04T10:18:42.951Z,5644
2016-04-04T10:19:43.032Z,5168
2016-04-04T10:20:43.034Z,5820
2016-04-04T10:21:43.084Z,6928
2016-04-04T10:22:43.119Z,7676
2016-04-04T10:23:43.153Z,6760
2016-04-04T10:24:43.217Z,6020
2016-04-04T10:25:43.252Z,6172
2016-04-04T10:26:43.286Z,6148
2016-04-04T10:27:43.336Z,6332
2016-04-04T10:28:43.369Z,6680
2016-04-04T10:29:43.419Z,7536
2016-04-04T10:30:43.452Z,7888
2016-04-04T10:31:43.518Z,8128
2016-04-04T10:32:43.551Z,7712
2016-04-04T10:33:43.617Z,7212
2016-04-04T10:34:43.698Z,7340
2016-04-04T10:35:43.685Z,7436
2016-04-04T10:36:43.734Z,7084
2016-04-04T10:37:43.752Z,6496
2016-04-04T10:38:43.817Z,6380
2016-04-04T10:39:43.882Z,6372
2016-04-04T10:40:43.902Z,6436
2016-04-04T10:41:43.935Z,6864
2016-04-04T10:42:44.016Z,6252
2016-04-04T10:43:44.034Z,6164
2016-04-04T10:44:44.053Z,6352
2016-04-04T10:45:44.118Z,5772
2016-04-04T10:46:44.168Z,5052
2016-04-04T10:47:44.217Z,4672
2016-04-04T10:48:44.235Z,4628
2016-04-04T10:49:44.362Z,4404
2016-04-04T10:50:44.319Z,4156
2016-04-04T10:51:44.368Z,3980
2016-04-04T10:52:44.403Z,3852
2016-04-04T10:53:44.452Z,3072
2016-04-04T10:54:44.501Z,3244
2016-04-04T10:55:44.535Z,3944
2016-04-04T10:56:44.600Z,4924
2016-04-04T10:57:44.634Z,5540
2016-04-04T10:58:44.700Z,5284
2016-04-04T10:59:44.702Z,5780
2016-04-04T11:00:44.736Z,5608
2016-04-04T11:01:44.786Z,6740
2016-04-04T11:02:44.836Z,6712
2016-04-04T11:03:44.869Z,5820
2016-04-04T11:04:44.982Z,4812
2016-04-04T11:05:44.984Z,5012
2016-04-04T11:06:44.988Z,4864
2016-04-04T11:07:45.052Z,4712
2016-04-04T11:08:45.096Z,4608
2016-04-04T11:09:45.129Z,4616
2016-04-04T11:10:45.179Z,4692
2016-04-04T11:11:45.228Z,4648
2016-04-04T11:12:45.262Z,4340
2016-04-04T11:13:45.390Z,4556
2016-04-04T11:14:45.346Z,4376
2016-04-04T11:15:45.380Z,4044
2016-04-04T11:16:45.430Z,3864
2016-04-04T11:17:45.464Z,4124
2016-04-04T11:18:45.529Z,4540
2016-04-04T11:19:45.656Z,5260
2016-04-04T11:20:45.597Z,5836
2016-04-04T11:21:45.647Z,5704
2016-04-04T11:22:45.681Z,5156
2016-04-04T11:23:45.730Z,4812
2016-04-04T11:24:45.780Z,5220
2016-04-04T11:25:45.814Z,6696
2016-04-04T11:26:45.863Z,6580
2016-04-04T11:27:45.897Z,5932
2016-04-04T11:28:45.931Z,5304
2016-04-04T11:29:45.980Z,4932
2016-04-04T11:30:46.014Z,5084
2016-04-04T11:31:46.063Z,4976
2016-04-04T11:32:46.129Z,5352
2016-04-04T11:33:46.162Z,6052
2016-04-04T11:34:46.274Z,6400
2016-04-04T11:35:46.231Z,6844
2016-04-04T11:36:46.279Z,6728
2016-04-04T11:37:46.329Z,6624
2016-04-04T11:38:46.354Z,6540
2016-04-04T11:39:46.418Z,6528
2016-04-04T11:40:46.453Z,6408
2016-04-04T11:41:46.501Z,6268
2016-04-04T11:42:46.536Z,6092
2016-04-04T11:43:46.586Z,5888
2016-04-04T11:44:46.634Z,5604
2016-04-04T11:45:46.653Z,5164
2016-04-04T11:46:46.702Z,4988
2016-04-04T11:47:46.752Z,4024
2016-04-04T11:48:46.770Z,3312
2016-04-04T11:49:47.054Z,2712
2016-04-04T11:50:46.713Z,2068
2016-04-04T11:51:46.935Z,1912
2016-04-04T11:52:46.953Z,1644
2016-04-04T11:53:46.987Z,1512
2016-04-04T11:54:47.053Z,1488
2016-04-04T11:55:47.086Z,1404
2016-04-04T11:56:47.136Z,1520
2016-04-04T11:57:47.186Z,1840
2016-04-04T11:58:47.219Z,2372
2016-04-04T11:59:47.254Z,2640
2016-04-04T12:00:47.302Z,3352
2016-04-04T12:01:47.352Z,3956
2016-04-04T12:02:47.387Z,3968
2016-04-04T12:03:47.435Z,3692
2016-04-04T12:04:47.438Z,3624
2016-04-04T12:05:47.503Z,4228
2016-04-04T12:06:47.537Z,5516
2016-04-04T12:07:47.587Z,6132
2016-04-04T12:08:47.636Z,5900
2016-04-04T12:09:47.671Z,5952
2016-04-04T12:10:47.720Z,6676
2016-04-04T12:11:47.754Z,7108
2016-04-04T12:12:47.789Z,6276
2016-04-04T12:13:47.838Z,5208
2016-04-04T12:14:47.872Z,4260
2016-04-04T12:15:47.937Z,3840
2016-04-04T12:16:47.955Z,3680
2016-04-04T12:17:47.989Z,3092
2016-04-04T12:18:48.039Z,2888
2016-04-04T12:19:47.963Z,2836
2016-04-04T12:20:48.107Z,3180
2016-04-04T12:21:48.156Z,3980
2016-04-04T12:22:48.206Z,4948
2016-04-04T12:23:48.240Z,5408
2016-04-04T12:24:48.289Z,5848
2016-04-04T12:25:48.324Z,5924
2016-04-04T12:26:48.389Z,5996
2016-04-04T12:27:48.438Z,6020
2016-04-04T12:28:48.472Z,5836
2016-04-04T12:29:48.505Z,5560
2016-04-04T12:30:48.540Z,5104
2016-04-04T12:31:48.574Z,4808
2016-04-04T12:32:48.607Z,4704
2016-04-04T12:33:48.657Z,4412
2016-04-04T12:34:48.753Z,4320
2016-04-04T12:35:48.740Z,4376
2016-04-04T12:36:48.774Z,3992
2016-04-04T12:37:48.824Z,3652
2016-04-04T12:38:48.858Z,3212
2016-04-04T12:39:48.908Z,2828
2016-04-04T12:40:48.957Z,3024
2016-04-04T12:41:48.992Z,3096
2016-04-04T12:42:49.041Z,3132
2016-04-04T12:43:49.075Z,2940
2016-04-04T12:44:49.125Z,2724
2016-04-04T12:45:49.142Z,2660
2016-04-04T12:46:49.208Z,2628
2016-04-04T12:47:49.226Z,2632
2016-04-04T12:48:49.275Z,2496
2016-04-04T12:49:49.434Z,2244
2016-04-04T12:50:49.359Z,2200
2016-04-04T12:51:49.408Z,2160
2016-04-04T12:52:49.442Z,2428
2016-04-04T12:53:49.476Z,2996
2016-04-04T12:54:49.526Z,3180
2016-04-04T12:55:49.575Z,3160
2016-04-04T12:56:49.624Z,3200
2016-04-04T12:57:49.675Z,3128
2016-04-04T12:58:49.693Z,3140
2016-04-04T12:59:49.711Z,2928
2016-04-04T13:00:49.761Z,3272
2016-04-04T13:01:49.811Z,3764
2016-04-04T13:02:49.860Z,4524
2016-04-04T13:03:49.910Z,5360
2016-04-04T13:04:50.053Z,6384
2016-04-04T13:05:49.993Z,7124
2016-04-04T13:06:50.027Z,7296
2016-04-04T13:07:50.045Z,7476
2016-04-04T13:08:50.096Z,7608
2016-04-04T13:09:50.129Z,7636
2016-04-04T13:10:50.179Z,7452
2016-04-04T13:11:50.213Z,7280
2016-04-04T13:12:50.246Z,7132
2016-04-04T13:13:50.312Z,7140
2016-04-04T13:14:50.345Z,6460
2016-04-04T13:15:50.395Z,6152
2016-04-04T13:16:50.461Z,6044
2016-04-04T13:17:50.478Z,5624
2016-04-04T13:18:50.497Z,5268
2016-04-04T13:19:50.531Z,5172
2016-04-04T13:20:50.596Z,4584
2016-04-04T13:21:50.630Z,4504
2016-04-04T13:22:50.679Z,4672
2016-04-04T13:23:50.713Z,4680
2016-04-04T13:24:50.747Z,4956
2016-04-04T13:25:50.797Z,5072
2016-04-04T13:26:50.846Z,5392
2016-04-04T13:27:50.881Z,4772
2016-04-04T13:28:50.914Z,4536
2016-04-04T13:29:50.949Z,4160
2016-04-04T13:30:50.920Z,4432
2016-04-04T13:31:51.047Z,4760
2016-04-04T13:32:51.082Z,4340
2016-04-04T13:33:51.132Z,3640
2016-04-04T13:34:51.305Z,2968
2016-04-04T13:35:51.215Z,3584
2016-04-04T13:36:51.264Z,4792
2016-04-04T13:37:51.298Z,4760
2016-04-04T13:38:51.332Z,4096
2016-04-04T13:39:51.381Z,3276
2016-04-04T13:40:51.431Z,2240
2016-04-04T13:41:51.464Z,1840
2016-04-04T13:42:51.498Z,1768
2016-04-04T13:43:51.533Z,1668
2016-04-04T13:44:51.582Z,1320
2016-04-04T13:45:51.616Z,1140
2016-04-04T13:46:51.650Z,972
2016-04-04T13:47:51.700Z,1100